sensor_id;sensor_type;location;lat;lon;timestamp;pressure;altitude;pressure_sealevel;temperature;humidity
16355;BME280;8287;51.644;8.494;2023-08-31T00:02:13;99574.97;;;15.95;90.75
16355;BME280;8287;51.644;8.494;2023-08-31T00:04:40;99578.09;;;15.97;90.67
16355;BME280;8287;51.644;8.494;2023-08-31T00:07:07;99576.91;;;15.95;90.45
16355;BME280;8287;51.644;8.494;2023-08-31T00:09:33;99582.66;;;15.97;90.29
16355;BME280;8287;51.644;8.494;2023-08-31T00:12:01;99582.59;;;15.93;91.04
16355;BME280;8287;51.644;8.494;2023-08-31T00:14:27;99582.59;;;15.93;90.21
16355;BME280;8287;51.644;8.494;2023-08-31T00:16:54;99586.38;;;15.92;90.42
16355;BME280;8287;51.644;8.494;2023-08-31T00:19:24;99579.84;;;15.90;91.00
16355;BME280;8287;51.644;8.494;2023-08-31T00:21:51;99579.78;;;15.86;90.96
16355;BME280;8287;51.644;8.494;2023-08-31T00:24:17;99582.41;;;15.83;90.94
16355;BME280;8287;51.644;8.494;2023-08-31T00:26:51;99578.56;;;15.80;91.43
16355;BME280;8287;51.644;8.494;2023-08-31T00:29:17;99577.59;;;15.69;92.17
16355;BME280;8287;51.644;8.494;2023-08-31T00:31:45;99580.66;;;15.71;91.37
16355;BME280;8287;51.644;8.494;2023-08-31T00:34:13;99587.09;;;15.67;91.76
16355;BME280;8287;51.644;8.494;2023-08-31T00:36:44;99583.59;;;15.63;92.09
16355;BME280;8287;51.644;8.494;2023-08-31T00:39:10;99585.19;;;15.67;91.24
16355;BME280;8287;51.644;8.494;2023-08-31T00:41:37;99579.31;;;15.58;91.87
16355;BME280;8287;51.644;8.494;2023-08-31T00:44:05;99581.97;;;15.58;91.56
16355;BME280;8287;51.644;8.494;2023-08-31T00:46:32;99575.75;;;15.51;91.80
16355;BME280;8287;51.644;8.494;2023-08-31T00:48:58;99571.88;;;15.48;91.98
16355;BME280;8287;51.644;8.494;2023-08-31T00:51:26;99579.53;;;15.50;91.63
16355;BME280;8287;51.644;8.494;2023-08-31T00:53:54;99577.91;;;15.45;92.63
16355;BME280;8287;51.644;8.494;2023-08-31T00:56:21;99576.09;;;15.49;91.52
16355;BME280;8287;51.644;8.494;2023-08-31T00:58:47;99577.63;;;15.50;91.25
16355;BME280;8287;51.644;8.494;2023-08-31T01:01:22;99571.41;;;15.43;90.90
16355;BME280;8287;51.644;8.494;2023-08-31T01:03:55;99571.75;;;15.41;91.37
16355;BME280;8287;51.644;8.494;2023-08-31T01:06:29;99579.13;;;15.29;92.38
16355;BME280;8287;51.644;8.494;2023-08-31T01:09:07;99578.34;;;15.28;92.52
16355;BME280;8287;51.644;8.494;2023-08-31T01:11:46;99562.69;;;15.27;92.46
16355;BME280;8287;51.644;8.494;2023-08-31T01:14:19;99566.13;;;15.27;92.24
16355;BME280;8287;51.644;8.494;2023-08-31T01:16:50;99573.16;;;15.35;92.04
16355;BME280;8287;51.644;8.494;2023-08-31T01:19:27;99582.38;;;15.38;91.93
16355;BME280;8287;51.644;8.494;2023-08-31T01:22:00;99574.28;;;15.34;92.38
16355;BME280;8287;51.644;8.494;2023-08-31T01:24:31;99568.94;;;15.34;92.83
16355;BME280;8287;51.644;8.494;2023-08-31T01:26:58;99573.56;;;15.37;93.03
16355;BME280;8287;51.644;8.494;2023-08-31T01:29:25;99580.19;;;15.43;92.92
16355;BME280;8287;51.644;8.494;2023-08-31T01:31:52;99575.56;;;15.40;93.51
16355;BME280;8287;51.644;8.494;2023-08-31T01:34:18;99566.34;;;15.38;94.44
16355;BME280;8287;51.644;8.494;2023-08-31T01:36:50;99579.28;;;15.36;95.11
16355;BME280;8287;51.644;8.494;2023-08-31T01:39:22;99572.09;;;15.40;94.63
16355;BME280;8287;51.644;8.494;2023-08-31T01:41:56;99570.75;;;15.49;93.87
16355;BME280;8287;51.644;8.494;2023-08-31T01:44:23;99574.56;;;15.48;93.92
16355;BME280;8287;51.644;8.494;2023-08-31T01:46:52;99572.78;;;15.56;93.28
16355;BME280;8287;51.644;8.494;2023-08-31T01:49:19;99568.63;;;15.58;92.83
16355;BME280;8287;51.644;8.494;2023-08-31T01:51:46;99575.78;;;15.54;93.65
16355;BME280;8287;51.644;8.494;2023-08-31T01:54:13;99583.47;;;15.56;93.33
16355;BME280;8287;51.644;8.494;2023-08-31T01:56:39;99586.59;;;15.61;93.39
16355;BME280;8287;51.644;8.494;2023-08-31T01:59:07;99585.13;;;15.64;93.23
16355;BME280;8287;51.644;8.494;2023-08-31T02:01:34;99586.47;;;15.54;93.44
16355;BME280;8287;51.644;8.494;2023-08-31T02:04:01;99588.06;;;15.59;94.06
16355;BME280;8287;51.644;8.494;2023-08-31T02:06:28;99591.59;;;15.63;93.12
16355;BME280;8287;51.644;8.494;2023-08-31T02:08:54;99591.81;;;15.54;94.61
16355;BME280;8287;51.644;8.494;2023-08-31T02:11:21;99595.75;;;15.60;94.73
16355;BME280;8287;51.644;8.494;2023-08-31T02:13:47;99591.25;;;15.64;94.79
16355;BME280;8287;51.644;8.494;2023-08-31T02:16:15;99577.53;;;15.66;94.44
16355;BME280;8287;51.644;8.494;2023-08-31T02:18:42;99574.38;;;15.60;94.34
16355;BME280;8287;51.644;8.494;2023-08-31T02:21:08;99579.72;;;15.60;93.88
16355;BME280;8287;51.644;8.494;2023-08-31T02:23:35;99577.78;;;15.57;93.40
16355;BME280;8287;51.644;8.494;2023-08-31T02:26:01;99590.75;;;15.59;92.27
16355;BME280;8287;51.644;8.494;2023-08-31T02:28:28;99583.53;;;15.59;91.38
16355;BME280;8287;51.644;8.494;2023-08-31T02:30:58;99598.28;;;15.53;89.67
16355;BME280;8287;51.644;8.494;2023-08-31T02:33:26;99602.00;;;15.49;89.55
16355;BME280;8287;51.644;8.494;2023-08-31T02:35:53;99605.25;;;15.39;90.69
16355;BME280;8287;51.644;8.494;2023-08-31T02:38:21;99601.69;;;15.31;90.96
16355;BME280;8287;51.644;8.494;2023-08-31T02:40:48;99602.00;;;15.30;92.03
16355;BME280;8287;51.644;8.494;2023-08-31T02:43:15;99609.78;;;15.35;91.28
16355;BME280;8287;51.644;8.494;2023-08-31T02:45:41;99602.19;;;15.37;91.24
16355;BME280;8287;51.644;8.494;2023-08-31T02:48:08;99604.91;;;15.40;91.49
16355;BME280;8287;51.644;8.494;2023-08-31T02:50:36;99601.84;;;15.38;91.39
16355;BME280;8287;51.644;8.494;2023-08-31T02:53:04;99601.84;;;15.38;91.98
16355;BME280;8287;51.644;8.494;2023-08-31T02:55:32;99598.72;;;15.36;92.38
16355;BME280;8287;51.644;8.494;2023-08-31T02:57:59;99599.56;;;15.21;93.71
16355;BME280;8287;51.644;8.494;2023-08-31T03:00:25;99591.97;;;15.23;94.56
16355;BME280;8287;51.644;8.494;2023-08-31T03:02:53;99598.25;;;15.31;94.13
16355;BME280;8287;51.644;8.494;2023-08-31T03:05:20;99598.56;;;15.29;94.72
16355;BME280;8287;51.644;8.494;2023-08-31T03:07:49;99599.28;;;15.26;94.92
16355;BME280;8287;51.644;8.494;2023-08-31T03:10:15;99592.41;;;15.25;95.23
16355;BME280;8287;51.644;8.494;2023-08-31T03:12:42;99589.44;;;15.30;94.60
16355;BME280;8287;51.644;8.494;2023-08-31T03:15:08;99595.84;;;15.26;94.47
16355;BME280;8287;51.644;8.494;2023-08-31T03:17:35;99601.88;;;15.23;95.35
16355;BME280;8287;51.644;8.494;2023-08-31T03:20:02;99592.66;;;15.20;95.50
16355;BME280;8287;51.644;8.494;2023-08-31T03:22:31;99591.19;;;15.23;95.96
16355;BME280;8287;51.644;8.494;2023-08-31T03:24:59;99594.44;;;15.32;94.63
16355;BME280;8287;51.644;8.494;2023-08-31T03:27:25;99591.59;;;15.25;94.47
16355;BME280;8287;51.644;8.494;2023-08-31T03:29:52;99591.34;;;15.30;93.99
16355;BME280;8287;51.644;8.494;2023-08-31T03:32:19;99600.81;;;15.27;93.68
16355;BME280;8287;51.644;8.494;2023-08-31T03:34:45;99597.31;;;15.23;94.33
16355;BME280;8287;51.644;8.494;2023-08-31T03:37:12;99587.31;;;15.20;94.40
16355;BME280;8287;51.644;8.494;2023-08-31T03:39:39;99591.91;;;15.20;93.94
16355;BME280;8287;51.644;8.494;2023-08-31T03:42:08;99598.00;;;15.20;93.81
16355;BME280;8287;51.644;8.494;2023-08-31T03:44:34;99599.34;;;15.11;93.66
16355;BME280;8287;51.644;8.494;2023-08-31T03:47:02;99603.22;;;15.13;93.31
16355;BME280;8287;51.644;8.494;2023-08-31T03:49:29;99607.84;;;15.16;92.57
16355;BME280;8287;51.644;8.494;2023-08-31T03:51:57;99598.16;;;15.08;92.72
16355;BME280;8287;51.644;8.494;2023-08-31T03:54:23;99622.16;;;15.08;92.74
16355;BME280;8287;51.644;8.494;2023-08-31T03:56:50;99621.25;;;15.01;92.78
16355;BME280;8287;51.644;8.494;2023-08-31T03:59:18;99619.13;;;14.91;93.62
16355;BME280;8287;51.644;8.494;2023-08-31T04:01:44;99620.31;;;14.93;93.66
16355;BME280;8287;51.644;8.494;2023-08-31T04:04:11;99627.91;;;14.91;92.66
16355;BME280;8287;51.644;8.494;2023-08-31T04:06:38;99623.31;;;14.92;92.23
16355;BME280;8287;51.644;8.494;2023-08-31T04:09:05;99635.91;;;14.91;92.45
16355;BME280;8287;51.644;8.494;2023-08-31T04:11:32;99634.63;;;14.85;92.49
16355;BME280;8287;51.644;8.494;2023-08-31T04:13:58;99644.38;;;14.78;93.42
16355;BME280;8287;51.644;8.494;2023-08-31T04:16:26;99641.22;;;14.72;93.41
16355;BME280;8287;51.644;8.494;2023-08-31T04:18:54;99645.69;;;14.68;93.71
16355;BME280;8287;51.644;8.494;2023-08-31T04:21:21;99642.84;;;14.61;94.41
16355;BME280;8287;51.644;8.494;2023-08-31T04:23:47;99645.59;;;14.65;93.52
16355;BME280;8287;51.644;8.494;2023-08-31T04:26:14;99651.72;;;14.65;94.07
16355;BME280;8287;51.644;8.494;2023-08-31T04:28:42;99653.09;;;14.59;93.75
16355;BME280;8287;51.644;8.494;2023-08-31T04:31:09;99653.00;;;14.56;93.13
16355;BME280;8287;51.644;8.494;2023-08-31T04:33:38;99656.88;;;14.58;93.76
16355;BME280;8287;51.644;8.494;2023-08-31T04:36:04;99659.88;;;14.57;93.35
16355;BME280;8287;51.644;8.494;2023-08-31T04:38:31;99664.78;;;14.55;93.65
16355;BME280;8287;51.644;8.494;2023-08-31T04:40:58;99663.59;;;14.52;93.54
16355;BME280;8287;51.644;8.494;2023-08-31T04:43:25;99661.88;;;14.44;93.95
16355;BME280;8287;51.644;8.494;2023-08-31T04:45:52;99679.00;;;14.43;94.16
16355;BME280;8287;51.644;8.494;2023-08-31T04:48:19;99666.53;;;14.47;93.99
16355;BME280;8287;51.644;8.494;2023-08-31T04:50:47;99675.28;;;14.48;94.27
16355;BME280;8287;51.644;8.494;2023-08-31T04:53:13;99674.69;;;14.54;93.81
16355;BME280;8287;51.644;8.494;2023-08-31T04:55:40;99679.59;;;14.52;93.83
16355;BME280;8287;51.644;8.494;2023-08-31T04:58:06;99677.44;;;14.58;93.31
16355;BME280;8287;51.644;8.494;2023-08-31T05:00:33;99682.41;;;14.59;93.08
16355;BME280;8287;51.644;8.494;2023-08-31T05:03:00;99685.16;;;14.63;92.88
16355;BME280;8287;51.644;8.494;2023-08-31T05:05:28;99683.72;;;14.65;93.10
16355;BME280;8287;51.644;8.494;2023-08-31T05:07:56;99688.34;;;14.68;92.60
16355;BME280;8287;51.644;8.494;2023-08-31T05:10:22;99690.69;;;14.70;92.73
16355;BME280;8287;51.644;8.494;2023-08-31T05:12:49;99696.00;;;14.70;92.89
16355;BME280;8287;51.644;8.494;2023-08-31T05:15:15;99692.38;;;14.62;93.88
16355;BME280;8287;51.644;8.494;2023-08-31T05:17:42;99691.72;;;14.65;93.83
16355;BME280;8287;51.644;8.494;2023-08-31T05:20:09;99690.34;;;14.56;93.79
16355;BME280;8287;51.644;8.494;2023-08-31T05:22:36;99689.72;;;14.62;93.84
16355;BME280;8287;51.644;8.494;2023-08-31T05:25:05;99700.84;;;14.64;93.45
16355;BME280;8287;51.644;8.494;2023-08-31T05:27:32;99698.84;;;14.61;93.96
16355;BME280;8287;51.644;8.494;2023-08-31T05:29:58;99707.63;;;14.62;93.63
16355;BME280;8287;51.644;8.494;2023-08-31T05:32:27;99703.25;;;14.54;94.35
16355;BME280;8287;51.644;8.494;2023-08-31T05:34:54;99714.09;;;14.61;94.01
16355;BME280;8287;51.644;8.494;2023-08-31T05:37:21;99711.22;;;14.69;93.88
16355;BME280;8287;51.644;8.494;2023-08-31T05:39:47;99709.34;;;14.70;94.29
16355;BME280;8287;51.644;8.494;2023-08-31T05:42:16;99713.88;;;14.69;94.91
16355;BME280;8287;51.644;8.494;2023-08-31T05:44:43;99714.22;;;14.83;94.18
16355;BME280;8287;51.644;8.494;2023-08-31T05:47:10;99710.59;;;14.91;93.18
16355;BME280;8287;51.644;8.494;2023-08-31T05:49:36;99710.19;;;14.89;93.09
16355;BME280;8287;51.644;8.494;2023-08-31T05:52:04;99705.34;;;14.95;93.50
16355;BME280;8287;51.644;8.494;2023-08-31T05:54:30;99704.16;;;14.92;93.40
16355;BME280;8287;51.644;8.494;2023-08-31T05:56:57;99711.72;;;14.90;93.54
16355;BME280;8287;51.644;8.494;2023-08-31T05:59:25;99705.28;;;14.91;93.43
16355;BME280;8287;51.644;8.494;2023-08-31T06:01:52;99701.81;;;14.91;93.77
16355;BME280;8287;51.644;8.494;2023-08-31T06:04:18;99697.06;;;15.00;93.65
16355;BME280;8287;51.644;8.494;2023-08-31T06:06:45;99711.34;;;15.07;93.88
16355;BME280;8287;51.644;8.494;2023-08-31T06:09:13;99704.81;;;15.05;93.97
16355;BME280;8287;51.644;8.494;2023-08-31T06:11:39;99713.13;;;15.19;93.55
16355;BME280;8287;51.644;8.494;2023-08-31T06:14:06;99714.91;;;15.30;92.99
16355;BME280;8287;51.644;8.494;2023-08-31T06:16:34;99722.31;;;15.37;93.44
16355;BME280;8287;51.644;8.494;2023-08-31T06:19:00;99723.84;;;15.38;92.88
16355;BME280;8287;51.644;8.494;2023-08-31T06:21:27;99717.81;;;15.41;92.65
16355;BME280;8287;51.644;8.494;2023-08-31T06:23:54;99730.09;;;15.45;92.08
16355;BME280;8287;51.644;8.494;2023-08-31T06:26:20;99723.03;;;15.34;92.69
16355;BME280;8287;51.644;8.494;2023-08-31T06:28:47;99726.59;;;15.41;92.93
16355;BME280;8287;51.644;8.494;2023-08-31T06:31:13;99723.78;;;15.53;92.73
16355;BME280;8287;51.644;8.494;2023-08-31T06:33:41;99728.38;;;15.53;92.49
16355;BME280;8287;51.644;8.494;2023-08-31T06:36:08;99723.38;;;15.70;91.91
16355;BME280;8287;51.644;8.494;2023-08-31T06:38:34;99719.56;;;15.71;91.57
16355;BME280;8287;51.644;8.494;2023-08-31T06:41:01;99735.59;;;15.71;91.98
16355;BME280;8287;51.644;8.494;2023-08-31T06:43:28;99737.72;;;15.81;91.57
16355;BME280;8287;51.644;8.494;2023-08-31T06:45:55;99734.47;;;15.91;90.87
16355;BME280;8287;51.644;8.494;2023-08-31T06:48:21;99736.59;;;15.82;90.94
16355;BME280;8287;51.644;8.494;2023-08-31T06:50:49;99736.16;;;15.99;89.10
16355;BME280;8287;51.644;8.494;2023-08-31T06:53:16;99739.88;;;15.95;88.66
16355;BME280;8287;51.644;8.494;2023-08-31T06:55:42;99736.59;;;15.82;89.19
16355;BME280;8287;51.644;8.494;2023-08-31T06:58:09;99737.28;;;15.79;89.33
16355;BME280;8287;51.644;8.494;2023-08-31T07:00:36;99739.81;;;15.91;89.59
16355;BME280;8287;51.644;8.494;2023-08-31T07:03:02;99732.22;;;15.93;89.51
16355;BME280;8287;51.644;8.494;2023-08-31T07:05:33;99735.63;;;16.13;88.94
16355;BME280;8287;51.644;8.494;2023-08-31T07:08:02;99732.06;;;16.05;88.32
16355;BME280;8287;51.644;8.494;2023-08-31T07:10:28;99736.47;;;16.17;87.76
16355;BME280;8287;51.644;8.494;2023-08-31T07:12:55;99741.19;;;16.23;87.60
16355;BME280;8287;51.644;8.494;2023-08-31T07:15:22;99741.44;;;16.37;87.34
16355;BME280;8287;51.644;8.494;2023-08-31T07:17:48;99747.50;;;16.34;87.38
16355;BME280;8287;51.644;8.494;2023-08-31T07:20:15;99742.53;;;16.36;86.41
16355;BME280;8287;51.644;8.494;2023-08-31T07:22:42;99744.31;;;16.48;85.71
16355;BME280;8287;51.644;8.494;2023-08-31T07:25:10;99745.09;;;16.48;86.17
16355;BME280;8287;51.644;8.494;2023-08-31T07:27:37;99737.66;;;16.61;84.97
16355;BME280;8287;51.644;8.494;2023-08-31T07:30:06;99745.69;;;16.61;85.52
16355;BME280;8287;51.644;8.494;2023-08-31T07:32:33;99750.59;;;16.81;83.33
16355;BME280;8287;51.644;8.494;2023-08-31T07:34:59;99747.97;;;16.84;83.64
16355;BME280;8287;51.644;8.494;2023-08-31T07:37:26;99746.28;;;16.99;84.39
16355;BME280;8287;51.644;8.494;2023-08-31T07:39:52;99747.78;;;16.96;83.27
16355;BME280;8287;51.644;8.494;2023-08-31T07:42:20;99752.06;;;17.01;83.19
16355;BME280;8287;51.644;8.494;2023-08-31T07:44:47;99748.69;;;17.07;83.46
16355;BME280;8287;51.644;8.494;2023-08-31T07:47:14;99743.44;;;17.14;83.26
16355;BME280;8287;51.644;8.494;2023-08-31T07:49:40;99745.03;;;17.19;83.33
16355;BME280;8287;51.644;8.494;2023-08-31T07:52:07;99753.91;;;17.49;83.01
16355;BME280;8287;51.644;8.494;2023-08-31T07:54:34;99756.25;;;17.54;82.82
16355;BME280;8287;51.644;8.494;2023-08-31T07:57:01;99768.00;;;17.46;82.11
16355;BME280;8287;51.644;8.494;2023-08-31T07:59:29;99760.06;;;17.53;81.34
16355;BME280;8287;51.644;8.494;2023-08-31T08:01:55;99756.75;;;17.63;81.36
16355;BME280;8287;51.644;8.494;2023-08-31T08:04:22;99765.94;;;17.62;80.46
16355;BME280;8287;51.644;8.494;2023-08-31T08:06:50;99773.63;;;17.63;79.57
16355;BME280;8287;51.644;8.494;2023-08-31T08:09:16;99772.38;;;17.57;79.28
16355;BME280;8287;51.644;8.494;2023-08-31T08:11:43;99781.47;;;17.49;79.83
16355;BME280;8287;51.644;8.494;2023-08-31T08:14:10;99785.97;;;17.42;80.73
16355;BME280;8287;51.644;8.494;2023-08-31T08:16:38;99778.00;;;17.23;81.73
16355;BME280;8287;51.644;8.494;2023-08-31T08:19:06;99790.66;;;17.26;82.44
16355;BME280;8287;51.644;8.494;2023-08-31T08:21:32;99786.03;;;17.23;82.46
16355;BME280;8287;51.644;8.494;2023-08-31T08:23:59;99787.25;;;17.29;82.66
16355;BME280;8287;51.644;8.494;2023-08-31T08:26:25;99791.97;;;17.35;82.65
16355;BME280;8287;51.644;8.494;2023-08-31T08:28:52;99782.13;;;17.43;82.51
16355;BME280;8287;51.644;8.494;2023-08-31T08:31:19;99778.47;;;17.54;81.13
16355;BME280;8287;51.644;8.494;2023-08-31T08:33:47;99770.97;;;17.67;81.07
16355;BME280;8287;51.644;8.494;2023-08-31T08:36:13;99781.91;;;17.84;80.96
16355;BME280;8287;51.644;8.494;2023-08-31T08:38:41;99774.06;;;18.02;79.61
16355;BME280;8287;51.644;8.494;2023-08-31T08:41:07;99776.03;;;18.05;79.54
16355;BME280;8287;51.644;8.494;2023-08-31T08:43:36;99780.09;;;18.25;77.72
16355;BME280;8287;51.644;8.494;2023-08-31T08:46:05;99781.44;;;18.45;77.41
16355;BME280;8287;51.644;8.494;2023-08-31T08:48:32;99778.53;;;18.60;76.60
16355;BME280;8287;51.644;8.494;2023-08-31T08:51:02;99779.00;;;18.73;76.34
16355;BME280;8287;51.644;8.494;2023-08-31T08:53:29;99768.28;;;18.73;73.68
16355;BME280;8287;51.644;8.494;2023-08-31T08:55:56;99782.81;;;18.68;73.26
16355;BME280;8287;51.644;8.494;2023-08-31T08:58:22;99780.09;;;18.65;72.52
16355;BME280;8287;51.644;8.494;2023-08-31T09:00:50;99783.94;;;18.64;73.19
16355;BME280;8287;51.644;8.494;2023-08-31T09:03:18;99788.09;;;18.58;72.26
16355;BME280;8287;51.644;8.494;2023-08-31T09:05:44;99788.44;;;18.53;73.49
16355;BME280;8287;51.644;8.494;2023-08-31T09:08:12;99783.38;;;18.48;73.91
16355;BME280;8287;51.644;8.494;2023-08-31T09:10:42;99799.47;;;18.44;74.91
16355;BME280;8287;51.644;8.494;2023-08-31T09:13:10;99810.81;;;18.31;77.86
16355;BME280;8287;51.644;8.494;2023-08-31T09:15:41;99822.59;;;17.90;81.26
16355;BME280;8287;51.644;8.494;2023-08-31T09:18:08;99820.50;;;17.50;84.35
16355;BME280;8287;51.644;8.494;2023-08-31T09:20:44;99825.13;;;17.27;85.98
16355;BME280;8287;51.644;8.494;2023-08-31T09:23:12;99827.31;;;17.22;86.76
16355;BME280;8287;51.644;8.494;2023-08-31T09:25:41;99820.34;;;17.14;87.34
16355;BME280;8287;51.644;8.494;2023-08-31T09:28:09;99823.78;;;17.14;87.58
16355;BME280;8287;51.644;8.494;2023-08-31T09:30:35;99822.28;;;17.17;88.80
16355;BME280;8287;51.644;8.494;2023-08-31T09:33:03;99831.44;;;17.16;89.07
16355;BME280;8287;51.644;8.494;2023-08-31T09:35:30;99818.47;;;17.18;89.02
16355;BME280;8287;51.644;8.494;2023-08-31T09:37:57;99819.66;;;17.20;87.45
16355;BME280;8287;51.644;8.494;2023-08-31T09:40:25;99813.34;;;17.32;88.29
16355;BME280;8287;51.644;8.494;2023-08-31T09:42:52;99803.03;;;17.34;89.78
16355;BME280;8287;51.644;8.494;2023-08-31T09:45:25;99808.25;;;17.49;89.90
16355;BME280;8287;51.644;8.494;2023-08-31T09:47:55;99813.72;;;17.56;87.70
16355;BME280;8287;51.644;8.494;2023-08-31T09:50:23;99816.16;;;17.68;87.89
16355;BME280;8287;51.644;8.494;2023-08-31T09:52:53;99811.63;;;17.72;87.57
16355;BME280;8287;51.644;8.494;2023-08-31T09:55:24;99803.38;;;17.88;87.91
16355;BME280;8287;51.644;8.494;2023-08-31T09:57:52;99798.13;;;17.95;87.45
16355;BME280;8287;51.644;8.494;2023-08-31T10:00:22;99804.09;;;18.14;88.20
16355;BME280;8287;51.644;8.494;2023-08-31T10:02:49;99803.78;;;18.19;86.84
16355;BME280;8287;51.644;8.494;2023-08-31T10:05:16;99802.25;;;18.22;84.29
16355;BME280;8287;51.644;8.494;2023-08-31T10:07:43;99812.31;;;18.28;84.05
16355;BME280;8287;51.644;8.494;2023-08-31T10:10:11;99814.63;;;18.30;83.83
16355;BME280;8287;51.644;8.494;2023-08-31T10:12:40;99807.09;;;18.42;83.77
16355;BME280;8287;51.644;8.494;2023-08-31T10:15:09;99817.94;;;18.53;84.36
16355;BME280;8287;51.644;8.494;2023-08-31T10:17:36;99815.25;;;18.53;85.13
16355;BME280;8287;51.644;8.494;2023-08-31T10:20:04;99811.88;;;18.59;80.54
16355;BME280;8287;51.644;8.494;2023-08-31T10:22:32;99825.16;;;18.45;76.96
16355;BME280;8287;51.644;8.494;2023-08-31T10:25:01;99820.06;;;18.37;78.26
16355;BME280;8287;51.644;8.494;2023-08-31T10:27:36;99823.91;;;18.36;78.57
16355;BME280;8287;51.644;8.494;2023-08-31T10:30:15;99830.81;;;18.37;77.75
16355;BME280;8287;51.644;8.494;2023-08-31T10:32:42;99825.88;;;18.42;77.28
16355;BME280;8287;51.644;8.494;2023-08-31T10:35:09;99829.03;;;18.51;77.99
16355;BME280;8287;51.644;8.494;2023-08-31T10:37:35;99824.59;;;18.66;78.37
16355;BME280;8287;51.644;8.494;2023-08-31T10:40:09;99821.97;;;18.73;77.13
16355;BME280;8287;51.644;8.494;2023-08-31T10:42:44;99825.13;;;18.82;76.83
16355;BME280;8287;51.644;8.494;2023-08-31T10:45:14;99821.38;;;18.93;76.52
16355;BME280;8287;51.644;8.494;2023-08-31T10:47:41;99829.13;;;19.02;75.42
16355;BME280;8287;51.644;8.494;2023-08-31T10:50:16;99822.69;;;19.10;75.50
16355;BME280;8287;51.644;8.494;2023-08-31T10:52:44;99824.28;;;19.18;74.32
16355;BME280;8287;51.644;8.494;2023-08-31T10:55:11;99830.47;;;19.25;72.23
16355;BME280;8287;51.644;8.494;2023-08-31T10:57:38;99825.63;;;19.45;73.45
16355;BME280;8287;51.644;8.494;2023-08-31T11:00:07;99823.44;;;19.61;72.16
16355;BME280;8287;51.644;8.494;2023-08-31T11:02:36;99828.75;;;19.54;70.08
16355;BME280;8287;51.644;8.494;2023-08-31T11:05:08;99835.63;;;19.48;68.54
16355;BME280;8287;51.644;8.494;2023-08-31T11:07:35;99828.38;;;19.55;70.28
16355;BME280;8287;51.644;8.494;2023-08-31T11:10:13;99829.91;;;19.53;69.21
16355;BME280;8287;51.644;8.494;2023-08-31T11:12:41;99834.50;;;19.49;69.26
16355;BME280;8287;51.644;8.494;2023-08-31T11:15:08;99839.81;;;19.38;69.53
16355;BME280;8287;51.644;8.494;2023-08-31T11:17:39;99854.56;;;19.18;72.93
16355;BME280;8287;51.644;8.494;2023-08-31T11:20:07;99853.63;;;18.97;73.98
16355;BME280;8287;51.644;8.494;2023-08-31T11:22:34;99856.13;;;18.76;73.65
16355;BME280;8287;51.644;8.494;2023-08-31T11:25:04;99860.16;;;18.59;76.20
16355;BME280;8287;51.644;8.494;2023-08-31T11:27:31;99862.69;;;18.42;78.77
16355;BME280;8287;51.644;8.494;2023-08-31T11:29:58;99862.69;;;18.42;78.94
16355;BME280;8287;51.644;8.494;2023-08-31T11:32:24;99870.69;;;18.38;79.46
16355;BME280;8287;51.644;8.494;2023-08-31T11:34:52;99868.38;;;18.37;80.68
16355;BME280;8287;51.644;8.494;2023-08-31T11:37:19;99874.09;;;18.35;80.25
16355;BME280;8287;51.644;8.494;2023-08-31T11:39:49;99870.34;;;18.40;80.38
16355;BME280;8287;51.644;8.494;2023-08-31T11:42:16;99873.16;;;18.54;80.17
16355;BME280;8287;51.644;8.494;2023-08-31T11:44:44;99860.41;;;18.44;82.02
16355;BME280;8287;51.644;8.494;2023-08-31T11:47:11;99850.97;;;18.57;80.81
16355;BME280;8287;51.644;8.494;2023-08-31T11:49:39;99855.56;;;18.56;77.89
16355;BME280;8287;51.644;8.494;2023-08-31T11:52:09;99857.00;;;18.50;77.44
16355;BME280;8287;51.644;8.494;2023-08-31T11:54:37;99860.53;;;18.54;77.21
16355;BME280;8287;51.644;8.494;2023-08-31T11:57:06;99862.50;;;18.61;77.11
16355;BME280;8287;51.644;8.494;2023-08-31T11:59:34;99854.72;;;18.49;75.02
16355;BME280;8287;51.644;8.494;2023-08-31T12:02:05;99867.38;;;18.52;77.10
16355;BME280;8287;51.644;8.494;2023-08-31T12:04:32;99858.59;;;18.55;76.68
16355;BME280;8287;51.644;8.494;2023-08-31T12:07:01;99863.19;;;18.54;76.72
16355;BME280;8287;51.644;8.494;2023-08-31T12:09:31;99857.13;;;18.61;76.41
16355;BME280;8287;51.644;8.494;2023-08-31T12:11:58;99859.03;;;18.60;76.24
16355;BME280;8287;51.644;8.494;2023-08-31T12:14:26;99858.75;;;18.69;75.15
16355;BME280;8287;51.644;8.494;2023-08-31T12:17:01;99852.59;;;18.68;75.99
16355;BME280;8287;51.644;8.494;2023-08-31T12:19:28;99858.81;;;18.76;74.78
16355;BME280;8287;51.644;8.494;2023-08-31T12:21:56;99846.53;;;18.75;74.78
16355;BME280;8287;51.644;8.494;2023-08-31T12:24:22;99853.91;;;18.85;73.71
16355;BME280;8287;51.644;8.494;2023-08-31T12:26:51;99842.53;;;18.98;74.45
16355;BME280;8287;51.644;8.494;2023-08-31T12:29:19;99846.97;;;19.20;73.74
16355;BME280;8287;51.644;8.494;2023-08-31T12:31:45;99847.63;;;19.14;74.18
16355;BME280;8287;51.644;8.494;2023-08-31T12:34:12;99848.56;;;19.28;73.23
16355;BME280;8287;51.644;8.494;2023-08-31T12:36:38;99845.47;;;19.30;72.54
16355;BME280;8287;51.644;8.494;2023-08-31T12:39:06;99846.91;;;19.17;72.84
16355;BME280;8287;51.644;8.494;2023-08-31T12:41:35;99842.41;;;19.28;72.05
16355;BME280;8287;51.644;8.494;2023-08-31T12:44:03;99843.19;;;19.28;72.44
16355;BME280;8287;51.644;8.494;2023-08-31T12:46:30;99833.59;;;19.31;72.46
16355;BME280;8287;51.644;8.494;2023-08-31T12:48:59;99839.03;;;19.38;72.60
16355;BME280;8287;51.644;8.494;2023-08-31T12:51:25;99837.59;;;19.51;72.78
16355;BME280;8287;51.644;8.494;2023-08-31T12:53:52;99829.63;;;19.72;70.59
16355;BME280;8287;51.644;8.494;2023-08-31T12:56:18;99829.78;;;20.00;71.00
16355;BME280;8287;51.644;8.494;2023-08-31T12:58:48;99832.22;;;20.33;69.60
16355;BME280;8287;51.644;8.494;2023-08-31T13:01:17;99832.66;;;20.59;68.76
16355;BME280;8287;51.644;8.494;2023-08-31T13:03:44;99827.31;;;20.83;68.94
16355;BME280;8287;51.644;8.494;2023-08-31T13:06:11;99841.56;;;21.15;66.59
16355;BME280;8287;51.644;8.494;2023-08-31T13:08:37;99832.31;;;21.30;65.10
16355;BME280;8287;51.644;8.494;2023-08-31T13:11:04;99825.38;;;21.47;65.16
16355;BME280;8287;51.644;8.494;2023-08-31T13:13:32;99833.06;;;21.45;65.96